sensor_id;sensor_type;location;lat;lon;timestamp;pressure;altitude;pressure_sealevel;temperature;humidity
70248;BME280;57641;51.416;5.506;2023-04-01T00:00:58;99295.72;;;13.74;68.47
70248;BME280;57641;51.416;5.506;2023-04-01T00:03:25;99299.97;;;13.94;68.68
70248;BME280;57641;51.416;5.506;2023-04-01T00:05:55;99298.34;;;13.80;68.71
70248;BME280;57641;51.416;5.506;2023-04-01T00:08:22;99297.88;;;13.96;68.59
70248;BME280;57641;51.416;5.506;2023-04-01T00:10:49;99298.31;;;13.93;68.70
70248;BME280;57641;51.416;5.506;2023-04-01T00:13:15;99296.53;;;13.74;69.08
70248;BME280;57641;51.416;5.506;2023-04-01T00:15:41;99293.63;;;13.76;68.57
70248;BME280;57641;51.416;5.506;2023-04-01T00:18:10;99307.44;;;13.79;67.64
70248;BME280;57641;51.416;5.506;2023-04-01T00:20:36;99306.44;;;13.61;69.87
70248;BME280;57641;51.416;5.506;2023-04-01T00:23:02;99307.72;;;13.58;69.45
70248;BME280;57641;51.416;5.506;2023-04-01T00:25:31;99303.97;;;13.59;69.14
70248;BME280;57641;51.416;5.506;2023-04-01T00:27:56;99304.34;;;13.76;69.04
70248;BME280;57641;51.416;5.506;2023-04-01T00:30:22;99304.22;;;13.58;69.88
70248;BME280;57641;51.416;5.506;2023-04-01T00:32:51;99308.53;;;13.52;69.14
70248;BME280;57641;51.416;5.506;2023-04-01T00:35:18;99305.81;;;13.65;69.82
70248;BME280;57641;51.416;5.506;2023-04-01T00:37:46;99297.63;;;13.47;70.45
70248;BME280;57641;51.416;5.506;2023-04-01T00:40:31;99301.78;;;13.36;70.06
70248;BME280;57641;51.416;5.506;2023-04-01T00:42:57;99308.16;;;13.42;70.30
70248;BME280;57641;51.416;5.506;2023-04-01T00:45:40;99312.06;;;13.46;70.46
70248;BME280;57641;51.416;5.506;2023-04-01T00:48:16;99319.50;;;13.37;70.90
70248;BME280;57641;51.416;5.506;2023-04-01T00:50:44;99323.00;;;13.11;71.40
70248;BME280;57641;51.416;5.506;2023-04-01T00:53:11;99322.38;;;13.42;71.10
70248;BME280;57641;51.416;5.506;2023-04-01T00:55:42;99322.75;;;13.46;69.94
70248;BME280;57641;51.416;5.506;2023-04-01T00:58:14;99336.53;;;13.49;70.28
70248;BME280;57641;51.416;5.506;2023-04-01T01:00:41;99334.09;;;13.48;70.42
70248;BME280;57641;51.416;5.506;2023-04-01T01:03:13;99335.69;;;13.69;70.14
70248;BME280;57641;51.416;5.506;2023-04-01T01:05:47;99332.44;;;13.40;70.65
70248;BME280;57641;51.416;5.506;2023-04-01T01:11:10;99340.47;;;13.47;70.18
70248;BME280;57641;51.416;5.506;2023-04-01T01:13:56;99348.91;;;13.50;70.38
70248;BME280;57641;51.416;5.506;2023-04-01T01:16:36;99338.63;;;13.47;69.99
70248;BME280;57641;51.416;5.506;2023-04-01T01:19:18;99339.22;;;13.63;69.89
70248;BME280;57641;51.416;5.506;2023-04-01T01:24:56;99356.69;;;13.65;69.92
70248;BME280;57641;51.416;5.506;2023-04-01T01:27:30;99346.19;;;13.70;70.15
70248;BME280;57641;51.416;5.506;2023-04-01T01:38:21;99348.66;;;13.72;69.74
70248;BME280;57641;51.416;5.506;2023-04-01T01:40:50;99346.81;;;13.72;70.04
70248;BME280;57641;51.416;5.506;2023-04-01T01:43:25;99349.50;;;13.66;69.51
70248;BME280;57641;51.416;5.506;2023-04-01T01:45:56;99354.19;;;13.77;68.87
70248;BME280;57641;51.416;5.506;2023-04-01T01:48:24;99361.41;;;13.83;68.80
70248;BME280;57641;51.416;5.506;2023-04-01T01:50:51;99365.56;;;13.72;69.57
70248;BME280;57641;51.416;5.506;2023-04-01T01:53:18;99364.72;;;13.85;69.65
70248;BME280;57641;51.416;5.506;2023-04-01T01:55:45;99356.63;;;13.91;69.60
70248;BME280;57641;51.416;5.506;2023-04-01T01:58:22;99363.25;;;13.89;69.84
70248;BME280;57641;51.416;5.506;2023-04-01T02:00:55;99370.06;;;13.85;68.91
70248;BME280;57641;51.416;5.506;2023-04-01T02:03:31;99370.47;;;13.82;69.21
70248;BME280;57641;51.416;5.506;2023-04-01T02:06:00;99374.72;;;14.03;68.60
70248;BME280;57641;51.416;5.506;2023-04-01T02:08:51;99368.97;;;13.99;68.92
70248;BME280;57641;51.416;5.506;2023-04-01T02:11:20;99379.50;;;14.01;68.92
70248;BME280;57641;51.416;5.506;2023-04-01T02:13:58;99377.00;;;14.06;69.05
70248;BME280;57641;51.416;5.506;2023-04-01T02:16:31;99377.47;;;13.83;69.21
70248;BME280;57641;51.416;5.506;2023-04-01T02:19:01;99378.13;;;13.78;68.94
70248;BME280;57641;51.416;5.506;2023-04-01T02:21:33;99380.94;;;13.96;69.61
70248;BME280;57641;51.416;5.506;2023-04-01T02:24:06;99385.22;;;14.11;68.69
70248;BME280;57641;51.416;5.506;2023-04-01T02:26:34;99379.13;;;13.90;68.31
70248;BME280;57641;51.416;5.506;2023-04-01T02:29:01;99382.00;;;13.95;69.26
70248;BME280;57641;51.416;5.506;2023-04-01T02:31:30;99375.34;;;14.05;68.11
70248;BME280;57641;51.416;5.506;2023-04-01T02:33:56;99383.81;;;14.02;68.39
70248;BME280;57641;51.416;5.506;2023-04-01T02:36:25;99394.09;;;14.11;68.05
70248;BME280;57641;51.416;5.506;2023-04-01T02:38:54;99382.13;;;14.07;68.19
70248;BME280;57641;51.416;5.506;2023-04-01T02:41:21;99390.97;;;14.14;67.55
70248;BME280;57641;51.416;5.506;2023-04-01T02:43:46;99393.84;;;14.19;67.76
70248;BME280;57641;51.416;5.506;2023-04-01T02:46:12;99394.88;;;14.25;67.84
70248;BME280;57641;51.416;5.506;2023-04-01T02:48:40;99391.38;;;14.18;67.55
70248;BME280;57641;51.416;5.506;2023-04-01T02:51:06;99391.31;;;13.80;68.70
70248;BME280;57641;51.416;5.506;2023-04-01T02:53:32;99393.19;;;13.53;69.66
70248;BME280;57641;51.416;5.506;2023-04-01T02:56:00;99394.81;;;13.74;69.57
70248;BME280;57641;51.416;5.506;2023-04-01T02:58:26;99404.84;;;13.91;68.98
70248;BME280;57641;51.416;5.506;2023-04-01T03:00:51;99394.56;;;13.95;69.09
70248;BME280;57641;51.416;5.506;2023-04-01T03:03:17;99398.31;;;13.74;68.51
70248;BME280;57641;51.416;5.506;2023-04-01T03:05:45;99406.91;;;13.96;68.78
70248;BME280;57641;51.416;5.506;2023-04-01T03:08:11;99406.50;;;13.99;68.70
70248;BME280;57641;51.416;5.506;2023-04-01T03:10:37;99410.41;;;13.96;68.81
70248;BME280;57641;51.416;5.506;2023-04-01T03:13:03;99418.00;;;14.13;68.09
70248;BME280;57641;51.416;5.506;2023-04-01T03:15:28;99407.34;;;13.93;68.46
70248;BME280;57641;51.416;5.506;2023-04-01T03:17:54;99412.06;;;13.91;68.60
70248;BME280;57641;51.416;5.506;2023-04-01T03:20:19;99418.88;;;14.00;67.94
70248;BME280;57641;51.416;5.506;2023-04-01T03:22:46;99414.59;;;13.79;68.77
70248;BME280;57641;51.416;5.506;2023-04-01T03:25:15;99417.03;;;13.87;68.79
70248;BME280;57641;51.416;5.506;2023-04-01T03:27:40;99429.44;;;13.69;69.58
70248;BME280;57641;51.416;5.506;2023-04-01T03:30:06;99420.34;;;13.70;69.16
70248;BME280;57641;51.416;5.506;2023-04-01T03:32:32;99423.03;;;13.83;69.29
70248;BME280;57641;51.416;5.506;2023-04-01T03:34:57;99424.84;;;13.95;68.58
70248;BME280;57641;51.416;5.506;2023-04-01T03:37:23;99434.75;;;13.95;68.83
70248;BME280;57641;51.416;5.506;2023-04-01T03:39:49;99431.25;;;13.88;68.21
70248;BME280;57641;51.416;5.506;2023-04-01T03:42:15;99429.00;;;13.78;68.87
70248;BME280;57641;51.416;5.506;2023-04-01T03:44:40;99439.31;;;13.55;69.36
70248;BME280;57641;51.416;5.506;2023-04-01T03:47:09;99424.47;;;13.79;68.80
70248;BME280;57641;51.416;5.506;2023-04-01T03:49:35;99433.53;;;13.78;68.95
70248;BME280;57641;51.416;5.506;2023-04-01T03:52:00;99440.97;;;13.69;69.41
70248;BME280;57641;51.416;5.506;2023-04-01T03:54:26;99434.56;;;13.77;69.09
70248;BME280;57641;51.416;5.506;2023-04-01T03:56:51;99447.56;;;13.60;69.37
70248;BME280;57641;51.416;5.506;2023-04-01T03:59:17;99438.91;;;13.78;69.51
70248;BME280;57641;51.416;5.506;2023-04-01T04:01:43;99439.31;;;13.68;68.99
70248;BME280;57641;51.416;5.506;2023-04-01T04:04:11;99439.94;;;13.50;69.16
70248;BME280;57641;51.416;5.506;2023-04-01T04:06:38;99439.31;;;13.68;69.73
70248;BME280;57641;51.416;5.506;2023-04-01T04:09:04;99436.22;;;13.65;69.08
70248;BME280;57641;51.416;5.506;2023-04-01T04:11:31;99437.88;;;13.72;68.88
70248;BME280;57641;51.416;5.506;2023-04-01T04:13:58;99452.50;;;13.57;69.60
70248;BME280;57641;51.416;5.506;2023-04-01T04:16:23;99446.56;;;13.48;69.77
70248;BME280;57641;51.416;5.506;2023-04-01T04:18:48;99444.06;;;13.60;70.04
70248;BME280;57641;51.416;5.506;2023-04-01T04:21:15;99454.56;;;13.74;69.04
70248;BME280;57641;51.416;5.506;2023-04-01T04:23:41;99459.72;;;13.69;68.98
70248;BME280;57641;51.416;5.506;2023-04-01T04:26:09;99455.41;;;13.68;69.28
70248;BME280;57641;51.416;5.506;2023-04-01T04:28:35;99461.16;;;13.78;68.85
70248;BME280;57641;51.416;5.506;2023-04-01T04:31:01;99464.88;;;13.51;69.41
70248;BME280;57641;51.416;5.506;2023-04-01T04:33:27;99464.25;;;13.62;68.65
70248;BME280;57641;51.416;5.506;2023-04-01T04:35:56;99466.09;;;13.48;69.51
70248;BME280;57641;51.416;5.506;2023-04-01T04:38:21;99472.06;;;13.31;69.47
70248;BME280;57641;51.416;5.506;2023-04-01T04:40:47;99463.41;;;13.55;69.52
70248;BME280;57641;51.416;5.506;2023-04-01T04:43:14;99472.69;;;13.52;69.57
70248;BME280;57641;51.416;5.506;2023-04-01T04:45:41;99474.13;;;13.35;69.56
70248;BME280;57641;51.416;5.506;2023-04-01T04:48:08;99477.81;;;13.28;69.36
70248;BME280;57641;51.416;5.506;2023-04-01T04:50:34;99484.00;;;13.15;69.38
70248;BME280;57641;51.416;5.506;2023-04-01T04:53:03;99484.44;;;13.51;69.53
70248;BME280;57641;51.416;5.506;2023-04-01T04:55:29;99497.22;;;13.43;69.67
70248;BME280;57641;51.416;5.506;2023-04-01T04:57:54;99502.34;;;13.31;69.99
70248;BME280;57641;51.416;5.506;2023-04-01T05:00:19;99500.25;;;13.33;69.76
70248;BME280;57641;51.416;5.506;2023-04-01T05:02:46;99509.56;;;13.57;69.38
70248;BME280;57641;51.416;5.506;2023-04-01T05:05:11;99497.63;;;13.46;69.50
70248;BME280;57641;51.416;5.506;2023-04-01T05:07:36;99510.63;;;12.89;70.04
70248;BME280;57641;51.416;5.506;2023-04-01T05:10:02;99507.47;;;13.20;70.40
70248;BME280;57641;51.416;5.506;2023-04-01T05:12:28;99517.03;;;13.01;69.97
70248;BME280;57641;51.416;5.506;2023-04-01T05:14:53;99523.94;;;13.23;69.86
70248;BME280;57641;51.416;5.506;2023-04-01T05:17:21;99519.59;;;13.16;69.73
70248;BME280;57641;51.416;5.506;2023-04-01T05:19:47;99529.41;;;13.08;70.05
70248;BME280;57641;51.416;5.506;2023-04-01T05:22:12;99529.50;;;13.28;69.95
70248;BME280;57641;51.416;5.506;2023-04-01T05:24:38;99530.38;;;13.42;69.33
70248;BME280;57641;51.416;5.506;2023-04-01T05:27:03;99524.16;;;13.22;69.98
70248;BME280;57641;51.416;5.506;2023-04-01T05:29:31;99535.28;;;13.32;69.12
70248;BME280;57641;51.416;5.506;2023-04-01T05:31:58;99542.25;;;13.33;70.36
70248;BME280;57641;51.416;5.506;2023-04-01T05:34:23;99554.41;;;13.29;69.15
70248;BME280;57641;51.416;5.506;2023-04-01T05:36:52;99548.47;;;13.27;69.42
70248;BME280;57641;51.416;5.506;2023-04-01T05:39:17;99548.06;;;13.36;69.48
70248;BME280;57641;51.416;5.506;2023-04-01T05:41:43;99553.41;;;13.36;69.87
70248;BME280;57641;51.416;5.506;2023-04-01T05:44:11;99555.03;;;13.31;69.41
70248;BME280;57641;51.416;5.506;2023-04-01T05:46:37;99549.66;;;13.24;68.98
70248;BME280;57641;51.416;5.506;2023-04-01T05:49:02;99558.34;;;13.26;69.65
70248;BME280;57641;51.416;5.506;2023-04-01T05:51:28;99554.66;;;12.86;71.20
70248;BME280;57641;51.416;5.506;2023-04-01T05:53:53;99558.81;;;12.95;70.75
70248;BME280;57641;51.416;5.506;2023-04-01T05:56:19;99571.09;;;12.83;71.18
70248;BME280;57641;51.416;5.506;2023-04-01T05:58:53;99577.41;;;13.10;70.49
70248;BME280;57641;51.416;5.506;2023-04-01T06:01:21;99570.91;;;12.85;71.16
70248;BME280;57641;51.416;5.506;2023-04-01T06:03:47;99583.91;;;13.01;70.78
70248;BME280;57641;51.416;5.506;2023-04-01T06:06:27;99587.00;;;12.98;70.63
70248;BME280;57641;51.416;5.506;2023-04-01T06:08:56;99582.50;;;12.98;70.46
70248;BME280;57641;51.416;5.506;2023-04-01T06:14:10;99601.28;;;13.11;70.55
70248;BME280;57641;51.416;5.506;2023-04-01T06:16:56;99608.94;;;13.15;70.00
70248;BME280;57641;51.416;5.506;2023-04-01T06:28:52;99624.00;;;12.88;70.10
70248;BME280;57641;51.416;5.506;2023-04-01T06:37:20;99635.72;;;12.87;71.33
70248;BME280;57641;51.416;5.506;2023-04-01T06:45:20;99643.28;;;13.11;71.12
70248;BME280;57641;51.416;5.506;2023-04-01T06:56:01;99654.28;;;13.29;70.59
70248;BME280;57641;51.416;5.506;2023-04-01T06:58:35;99659.63;;;13.29;70.72
70248;BME280;57641;51.416;5.506;2023-04-01T07:01:35;99665.41;;;13.26;69.95
70248;BME280;57641;51.416;5.506;2023-04-01T07:04:09;99660.69;;;12.94;70.90
70248;BME280;57641;51.416;5.506;2023-04-01T07:06:45;99667.09;;;13.06;71.54
70248;BME280;57641;51.416;5.506;2023-04-01T07:09:18;99665.47;;;13.05;71.67
70248;BME280;57641;51.416;5.506;2023-04-01T07:11:45;99668.81;;;13.14;71.32
70248;BME280;57641;51.416;5.506;2023-04-01T07:14:20;99679.09;;;13.10;71.39
70248;BME280;57641;51.416;5.506;2023-04-01T07:19:39;99689.31;;;13.34;71.00
70248;BME280;57641;51.416;5.506;2023-04-01T07:24:42;99693.03;;;13.40;71.03
70248;BME280;57641;51.416;5.506;2023-04-01T07:27:11;99696.00;;;13.58;70.40
70248;BME280;57641;51.416;5.506;2023-04-01T07:29:38;99705.44;;;13.47;70.29
70248;BME280;57641;51.416;5.506;2023-04-01T07:37:22;99713.47;;;13.54;70.69
70248;BME280;57641;51.416;5.506;2023-04-01T07:39:53;99718.84;;;13.47;70.76
70248;BME280;57641;51.416;5.506;2023-04-01T07:45:15;99722.13;;;13.49;70.57
70248;BME280;57641;51.416;5.506;2023-04-01T07:50:53;99727.16;;;13.72;70.13
70248;BME280;57641;51.416;5.506;2023-04-01T07:53:46;99724.50;;;13.79;69.73
70248;BME280;57641;51.416;5.506;2023-04-01T07:56:45;99730.47;;;13.74;69.06
70248;BME280;57641;51.416;5.506;2023-04-01T07:59:21;99730.38;;;13.54;70.48
70248;BME280;57641;51.416;5.506;2023-04-01T08:07:36;99747.56;;;13.73;68.52
70248;BME280;57641;51.416;5.506;2023-04-01T08:16:03;99763.09;;;13.98;68.91
70248;BME280;57641;51.416;5.506;2023-04-01T08:18:46;99769.91;;;13.93;68.84
70248;BME280;57641;51.416;5.506;2023-04-01T08:21:32;99773.00;;;13.97;68.38
70248;BME280;57641;51.416;5.506;2023-04-01T08:26:56;99778.56;;;13.48;70.44
70248;BME280;57641;51.416;5.506;2023-04-01T08:29:32;99780.19;;;13.49;70.97
70248;BME280;57641;51.416;5.506;2023-04-01T08:32:18;99781.97;;;13.76;70.20
70248;BME280;57641;51.416;5.506;2023-04-01T08:34:57;99777.28;;;13.85;70.08
70248;BME280;57641;51.416;5.506;2023-04-01T08:37:31;99784.56;;;14.04;68.50
70248;BME280;57641;51.416;5.506;2023-04-01T08:50:58;99807.38;;;14.41;69.17
70248;BME280;57641;51.416;5.506;2023-04-01T08:56:25;99812.81;;;14.07;68.35
70248;BME280;57641;51.416;5.506;2023-04-01T09:07:33;99836.34;;;14.18;67.03
70248;BME280;57641;51.416;5.506;2023-04-01T09:15:36;99839.25;;;14.23;67.04
70248;BME280;57641;51.416;5.506;2023-04-01T09:21:16;99849.75;;;14.11;67.01
70248;BME280;57641;51.416;5.506;2023-04-01T09:26:21;99852.31;;;14.32;66.42
70248;BME280;57641;51.416;5.506;2023-04-01T09:34:44;99861.94;;;14.20;67.91
70248;BME280;57641;51.416;5.506;2023-04-01T09:40:15;99865.91;;;13.83;69.33
70248;BME280;57641;51.416;5.506;2023-04-01T09:43:22;99878.28;;;13.91;69.53
70248;BME280;57641;51.416;5.506;2023-04-01T09:51:52;99878.53;;;14.37;68.71
70248;BME280;57641;51.416;5.506;2023-04-01T09:54:36;99878.56;;;14.50;68.21
70248;BME280;57641;51.416;5.506;2023-04-01T09:57:49;99891.88;;;14.30;68.00
70248;BME280;57641;51.416;5.506;2023-04-01T10:00:31;99899.41;;;14.07;67.82
70248;BME280;57641;51.416;5.506;2023-04-01T10:36:27;99928.09;;;14.13;68.04
70248;BME280;57641;51.416;5.506;2023-04-01T10:42:11;99925.56;;;14.40;67.08
70248;BME280;57641;51.416;5.506;2023-04-01T10:44:57;99938.63;;;14.15;68.16
70248;BME280;57641;51.416;5.506;2023-04-01T11:14:07;99964.78;;;14.06;67.99
70248;BME280;57641;51.416;5.506;2023-04-01T11:25:07;99974.59;;;14.27;67.36
70248;BME280;57641;51.416;5.506;2023-04-01T11:28:09;99978.25;;;13.91;67.37
70248;BME280;57641;51.416;5.506;2023-04-01T11:34:11;99982.59;;;13.92;68.16
70248;BME280;57641;51.416;5.506;2023-04-01T11:42:04;99990.28;;;13.95;68.15
70248;BME280;57641;51.416;5.506;2023-04-01T11:44:40;99995.22;;;13.99;67.93
70248;BME280;57641;51.416;5.506;2023-04-01T11:47:39;99997.66;;;13.93;68.34
70248;BME280;57641;51.416;5.506;2023-04-01T12:01:10;100013.50;;;14.51;66.81
70248;BME280;57641;51.416;5.506;2023-04-01T12:03:51;100023.16;;;14.11;67.50
70248;BME280;57641;51.416;5.506;2023-04-01T12:06:39;100016.66;;;14.33;67.69
70248;BME280;57641;51.416;5.506;2023-04-01T12:20:55;100040.97;;;13.97;69.39
70248;BME280;57641;51.416;5.506;2023-04-01T12:26:03;100040.47;;;13.87;70.59
70248;BME280;57641;51.416;5.506;2023-04-01T12:29:07;100045.66;;;14.16;69.89
70248;BME280;57641;51.416;5.506;2023-04-01T12:31:59;100045.75;;;14.29;69.01
70248;BME280;57641;51.416;5.506;2023-04-01T12:35:12;100062.00;;;14.28;69.58
70248;BME280;57641;51.416;5.506;2023-04-01T12:59:58;100073.69;;;14.14;69.50
70248;BME280;57641;51.416;5.506;2023-04-01T13:10:50;100082.06;;;14.32;69.43
70248;BME280;57641;51.416;5.506;2023-04-01T13:16:26;100095.22;;;13.99;68.96
70248;BME280;57641;51.416;5.506;2023-04-01T13:19:32;100096.25;;;14.26;69.68
70248;BME280;57641;51.416;5.506;2023-04-01T13:24:53;100093.28;;;14.14;70.08
70248;BME280;57641;51.416;5.506;2023-04-01T13:27:42;100103.09;;;14.07;69.65
70248;BME280;57641;51.416;5.506;2023-04-01T13:30:32;100097.91;;;13.99;70.05
70248;BME280;57641;51.416;5.506;2023-04-01T13:41:40;100115.75;;;14.13;69.74
70248;BME280;57641;51.416;5.506;2023-04-01T13:55:26;100130.13;;;14.33;69.59
70248;BME280;57641;51.416;5.506;2023-04-01T13:58:16;100124.03;;;14.18;69.98
70248;BME280;57641;51.416;5.506;2023-04-01T14:01:17;100129.66;;;14.02;69.81
70248;BME280;57641;51.416;5.506;2023-04-01T14:15:09;100143.09;;;14.30;69.69
70248;BME280;57641;51.416;5.506;2023-04-01T14:20:37;100144.41;;;13.91;69.69
70248;BME280;57641;51.416;5.506;2023-04-01T14:26:21;100154.00;;;13.79;71.23
70248;BME280;57641;51.416;5.506;2023-04-01T14:32:02;100161.13;;;13.93;71.16
70248;BME280;57641;51.416;5.506;2023-04-01T14:42:48;100167.25;;;14.09;69.43
70248;BME280;57641;51.416;5.506;2023-04-01T14:48:30;100178.72;;;14.24;70.43
70248;BME280;57641;51.416;5.506;2023-04-01T14:51:28;100178.91;;;14.44;69.84
70248;BME280;57641;51.416;5.506;2023-04-01T14:56:42;100186.19;;;14.28;69.52
70248;BME280;57641;51.416;5.506;2023-04-01T14:59:27;100193.97;;;14.38;69.09
70248;BME280;57641;51.416;5.506;2023-04-01T15:10:04;100197.06;;;13.99;70.65
70248;BME280;57641;51.416;5.506;2023-04-01T15:18:17;100211.38;;;14.49;69.69
70248;BME280;57641;51.416;5.506;2023-04-01T15:26:56;100225.28;;;13.95;70.53
70248;BME280;57641;51.416;5.506;2023-04-01T15:29:53;100219.19;;;14.08;70.46
70248;BME280;57641;51.416;5.506;2023-04-01T15:38:20;100234.31;;;13.94;70.05
70248;BME280;57641;51.416;5.506;2023-04-01T15:41:35;100240.56;;;14.01;69.33
70248;BME280;57641;51.416;5.506;2023-04-01T15:43:43;100242.06;;;14.04;69.25
70248;BME280;57641;51.416;5.506;2023-04-01T15:46:46;100251.09;;;14.03;70.16
70248;BME280;57641;51.416;5.506;2023-04-01T15:49:32;100244.88;;;14.17;69.85
70248;BME280;57641;51.416;5.506;2023-04-01T16:00:57;100257.56;;;14.08;70.01
70248;BME280;57641;51.416;5.506;2023-04-01T16:03:36;100262.56;;;14.11;69.16
70248;BME280;57641;51.416;5.506;2023-04-01T16:06:36;100264.34;;;14.25;69.44
70248;BME280;57641;51.416;5.506;2023-04-01T16:09:34;100265.03;;;14.34;69.02
70248;BME280;57641;51.416;5.506;2023-04-01T16:20:40;100279.53;;;13.82;70.02
70248;BME280;57641;51.416;5.506;2023-04-01T16:23:18;100281.94;;;13.77;69.99
70248;BME280;57641;51.416;5.506;2023-04-01T16:26:36;100279.72;;;14.17;69.78
70248;BME280;57641;51.416;5.506;2023-04-01T16:31:48;100283.38;;;14.30;69.39
70248;BME280;57641;51.416;5.506;2023-04-01T16:37:27;100289.88;;;14.21;69.23
70248;BME280;57641;51.416;5.506;2023-04-01T16:42:53;100291.44;;;13.94;69.53
70248;BME280;57641;51.416;5.506;2023-04-01T16:45:41;100296.75;;;14.09;69.79
70248;BME280;57641;51.416;5.506;2023-04-01T16:48:11;100286.44;;;14.06;69.67
70248;BME280;57641;51.416;5.506;2023-04-01T16:51:11;100302.78;;;14.11;68.95
70248;BME280;57641;51.416;5.506;2023-04-01T16:53:42;100310.38;;;14.29;68.43
70248;BME280;57641;51.416;5.506;2023-04-01T16:56:49;100312.47;;;14.33;69.19
70248;BME280;57641;51.416;5.506;2023-04-01T17:02:02;100306.41;;;14.25;69.19
70248;BME280;57641;51.416;5.506;2023-04-01T17:07:19;100313.66;;;14.46;68.74
70248;BME280;57641;51.416;5.506;2023-04-01T17:09:51;100307.94;;;14.34;68.59
70248;BME280;57641;51.416;5.506;2023-04-01T17:15:38;100325.03;;;14.33;68.56
70248;BME280;57641;51.416;5.506;2023-04-01T17:17:45;100336.75;;;14.25;69.42
70248;BME280;57641;51.416;5.506;2023-04-01T17:20:31;100331.25;;;14.33;69.08
70248;BME280;57641;51.416;5.506;2023-04-01T17:23:05;100333.63;;;14.22;69.20
70248;BME280;57641;51.416;5.506;2023-04-01T17:25:38;100342.53;;;14.44;68.90
70248;BME280;57641;51.416;5.506;2023-04-01T17:31:20;100365.41;;;14.61;68.84
70248;BME280;57641;51.416;5.506;2023-04-01T17:41:57;100365.72;;;14.72;68.34
70248;BME280;57641;51.416;5.506;2023-04-01T17:44:45;100376.31;;;14.80;68.01
70248;BME280;57641;51.416;5.506;2023-04-01T17:56:16;100405.22;;;15.00;68.01
70248;BME280;57641;51.416;5.506;2023-04-01T17:58:46;100400.28;;;15.03;68.02
70248;BME280;57641;51.416;5.506;2023-04-01T18:18:19;100445.69;;;14.98;68.19
70248;BME280;57641;51.416;5.506;2023-04-01T18:26:43;100459.28;;;15.18;66.93
70248;BME280;57641;51.416;5.506;2023-04-01T18:32:31;100484.50;;;15.17;67.30
70248;BME280;57641;51.416;5.506;2023-04-01T18:35:26;100486.72;;;15.13;67.18
70248;BME280;57641;51.416;5.506;2023-04-01T18:37:59;100491.66;;;15.10;67.88
70248;BME280;57641;51.416;5.506;2023-04-01T18:40:42;100501.03;;;15.20;67.62
70248;BME280;57641;51.416;5.506;2023-04-01T18:49:16;100521.19;;;15.10;67.69
70248;BME280;57641;51.416;5.506;2023-04-01T18:52:19;100512.16;;;15.17;67.31
70248;BME280;57641;51.416;5.506;2023-04-01T18:57:19;100535.38;;;15.04;67.44
70248;BME280;57641;51.416;5.506;2023-04-01T18:59:56;100541.00;;;15.09;67.24
70248;BME280;57641;51.416;5.506;2023-04-01T19:02:36;100549.97;;;15.16;66.67
70248;BME280;57641;51.416;5.506;2023-04-01T19:05:18;100564.00;;;15.18;66.88
70248;BME280;57641;51.416;5.506;2023-04-01T19:07:49;100562.47;;;15.09;66.77
70248;BME280;57641;51.416;5.506;2023-04-01T19:27:10;100605.09;;;14.97;65.14
70248;BME280;57641;51.416;5.506;2023-04-01T19:30:00;100609.00;;;14.95;64.92
70248;BME280;57641;51.416;5.506;2023-04-01T19:35:31;100620.66;;;14.87;65.26
70248;BME280;57641;51.416;5.506;2023-04-01T19:40:54;100627.25;;;14.85;64.82
70248;BME280;57641;51.416;5.506;2023-04-01T19:54:01;100651.28;;;14.93;63.88
70248;BME280;57641;51.416;5.506;2023-04-01T19:56:45;100664.59;;;14.86;64.00
70248;BME280;57641;51.416;5.506;2023-04-01T20:01:52;100671.28;;;14.90;63.63
70248;BME280;57641;51.416;5.506;2023-04-01T20:04:32;100677.78;;;14.96;62.91
70248;BME280;57641;51.416;5.506;2023-04-01T20:07:27;100683.50;;;14.93;63.21
70248;BME280;57641;51.416;5.506;2023-04-01T20:10:28;100691.38;;;14.79;63.53
70248;BME280;57641;51.416;5.506;2023-04-01T20:13:40;100703.47;;;14.75;63.80
70248;BME280;57641;51.416;5.506;2023-04-01T20:16:11;100710.31;;;14.49;64.24
70248;BME280;57641;51.416;5.506;2023-04-01T20:23:43;100728.44;;;14.61;64.14
70248;BME280;57641;51.416;5.506;2023-04-01T20:26:12;100733.94;;;14.68;62.95
70248;BME280;57641;51.416;5.506;2023-04-01T20:34:51;100748.91;;;14.62;63.34
70248;BME280;57641;51.416;5.506;2023-04-01T20:48:40;100776.03;;;14.45;63.43
70248;BME280;57641;51.416;5.506;2023-04-01T20:51:38;100785.94;;;14.44;63.46
70248;BME280;57641;51.416;5.506;2023-04-01T21:00:16;100808.31;;;14.36;63.92
70248;BME280;57641;51.416;5.506;2023-04-01T21:19:25;100838.00;;;14.27;64.33
70248;BME280;57641;51.416;5.506;2023-04-01T21:25:47;100849.44;;;14.21;63.86
70248;BME280;57641;51.416;5.506;2023-04-01T21:42:01;100888.13;;;14.26;61.57
70248;BME280;57641;51.416;5.506;2023-04-01T21:47:13;100891.91;;;14.09;61.65
70248;BME280;57641;51.416;5.506;2023-04-01T21:55:23;100906.84;;;14.04;62.29
70248;BME280;57641;51.416;5.506;2023-04-01T22:11:17;100936.06;;;13.90;61.72
70248;BME280;57641;51.416;5.506;2023-04-01T22:14:09;100940.38;;;13.91;61.97
70248;BME280;57641;51.416;5.506;2023-04-01T22:17:10;100951.47;;;13.80;61.76
70248;BME280;57641;51.416;5.506;2023-04-01T22:22:31;100962.38;;;13.79;62.11
70248;BME280;57641;51.416;5.506;2023-04-01T22:25:25;100964.06;;;13.72;61.60
70248;BME280;57641;51.416;5.506;2023-04-01T22:28:09;100975.31;;;13.51;62.57
70248;BME280;57641;51.416;5.506;2023-04-01T22:30:51;100978.16;;;13.58;62.51
70248;BME280;57641;51.416;5.506;2023-04-01T22:34:10;100979.47;;;13.53;62.09
70248;BME280;57641;51.416;5.506;2023-04-01T22:36:56;100989.03;;;13.56;62.30
70248;BME280;57641;51.416;5.506;2023-04-01T22:39:59;100994.22;;;13.58;61.92
70248;BME280;57641;51.416;5.506;2023-04-01T22:55:53;101021.69;;;13.68;62.20
70248;BME280;57641;51.416;5.506;2023-04-01T22:58:30;101025.69;;;13.72;62.01
70248;BME280;57641;51.416;5.506;2023-04-01T23:01:29;101028.38;;;13.72;61.78
70248;BME280;57641;51.416;5.506;2023-04-01T23:03:58;101036.44;;;13.64;61.93
70248;BME280;57641;51.416;5.506;2023-04-01T23:06:29;101040.94;;;13.63;61.25
70248;BME280;57641;51.416;5.506;2023-04-01T23:12:14;101046.63;;;13.60;61.42